Time;durP1;ratioP1;P1;durP2;ratioP2;P2;SDS_P1;SDS_P2;PMS_P1;PMS_P2;Temp;Humidity;BMP_temperature;BMP_pressure;BME280_temperature;BME280_humidity;BME280_pressure;Samples;Min_cycle;Max_cycle;Signal;HPM_P1;HPM_P2
2022/04/19 00:00:00;;;;;;;12.2;10.9;;;;;;;11.9;92.2;101220;;;;
2022/04/19 00:01:00;;;;;;;12.2;10.9;;;;;;;11.9;92.2;101220;;;;
2022/04/19 00:02:01;;;;;;;12.2;10.9;;;;;;;11.9;94.1;101210;;;;
2022/04/19 00:03:02;;;;;;;12.2;10.9;;;;;;;11.9;94.1;101210;;;;
2022/04/19 00:04:00;;;;;;;12.2;10.9;;;;;;;11.8;92.2;101210;;;;
2022/04/19 00:05:00;;;;;;;12.2;10.9;;;;;;;11.8;92.2;101210;;;;
2022/04/19 00:06:00;;;;;;;12.2;10.9;;;;;;;11.8;92.1;101210;;;;
2022/04/19 00:07:00;;;;;;;12.2;10.9;;;;;;;11.8;92.1;101210;;;;
2022/04/19 00:08:00;;;;;;;11.6;10.5;;;;;;;11.7;92.2;101210;;;;
2022/04/19 00:09:00;;;;;;;11.6;10.5;;;;;;;11.7;92.2;101210;;;;
2022/04/19 00:10:00;;;;;;;11.6;10.5;;;;;;;11.7;91.3;101210;;;;
2022/04/19 00:11:01;;;;;;;11.6;10.5;;;;;;;11.7;91.3;101210;;;;
2022/04/19 00:12:00;;;;;;;11.6;10.5;;;;;;;11.7;92.1;101210;;;;
2022/04/19 00:13:01;;;;;;;11.6;10.5;;;;;;;11.7;92.1;101210;;;;
2022/04/19 00:14:00;;;;;;;11.6;10.5;;;;;;;11.6;92.1;101210;;;;
2022/04/19 00:15:01;;;;;;;11.6;10.5;;;;;;;11.6;92.1;101210;;;;
2022/04/19 00:16:03;;;;;;;11.6;10.5;;;;;;;11.6;94.6;101210;;;;
2022/04/19 00:17:00;;;;;;;11.6;10.5;;;;;;;11.6;94.6;101210;;;;
2022/04/19 00:18:00;;;;;;;11.6;10.5;;;;;;;11.6;94.7;101210;;;;
2022/04/19 00:19:00;;;;;;;11.6;10.5;;;;;;;11.6;94.7;101210;;;;
2022/04/19 00:20:00;;;;;;;11.6;10.5;;;;;;;11.6;95.5;101210;;;;
2022/04/19 00:22:00;;;;;;;11.6;10.5;;;;;;;11.6;96.3;101210;;;;
2022/04/19 00:23:00;;;;;;;11.6;10.5;;;;;;;11.6;96.3;101210;;;;
2022/04/19 00:24:00;;;;;;;11.6;10.5;;;;;;;11.5;93.8;101210;;;;
2022/04/19 00:25:00;;;;;;;11.6;10.5;;;;;;;11.5;93.8;101210;;;;
2022/04/19 00:26:00;;;;;;;11.6;10.5;;;;;;;11.5;96.6;101210;;;;
2022/04/19 00:27:00;;;;;;;11.6;10.5;;;;;;;11.5;96.6;101210;;;;
2022/04/19 00:28:00;;;;;;;11.8;10.8;;;;;;;11.4;95.2;101210;;;;
2022/04/19 00:29:00;;;;;;;11.8;10.8;;;;;;;11.4;95.2;101210;;;;
2022/04/19 00:30:00;;;;;;;11.8;10.8;;;;;;;11.4;95.5;101210;;;;
2022/04/19 00:31:00;;;;;;;11.8;10.8;;;;;;;11.4;95.5;101210;;;;
2022/04/19 00:32:00;;;;;;;11.8;10.8;;;;;;;11.4;94.2;101210;;;;
2022/04/19 00:33:00;;;;;;;11.8;10.8;;;;;;;11.4;94.2;101210;;;;
2022/04/19 00:34:00;;;;;;;11.8;10.8;;;;;;;11.3;96.1;101210;;;;
2022/04/19 00:35:00;;;;;;;11.8;10.8;;;;;;;11.3;96.1;101210;;;;
2022/04/19 00:36:00;;;;;;;11.8;10.8;;;;;;;11.3;95.5;101210;;;;
2022/04/19 00:37:01;;;;;;;11.8;10.8;;;;;;;11.3;95.5;101210;;;;
2022/04/19 00:38:00;;;;;;;11.8;10.8;;;;;;;11.3;97.3;101200;;;;
2022/04/19 00:39:00;;;;;;;11.8;10.8;;;;;;;11.3;97.3;101200;;;;
2022/04/19 00:40:00;;;;;;;11.8;10.8;;;;;;;11.2;96.3;101200;;;;
2022/04/19 00:41:00;;;;;;;11.8;10.8;;;;;;;11.2;96.3;101200;;;;
2022/04/19 00:42:00;;;;;;;11.8;10.8;;;;;;;11.2;96.4;101200;;;;
2022/04/19 00:43:00;;;;;;;11.8;10.8;;;;;;;11.2;96.4;101200;;;;
2022/04/19 00:44:00;;;;;;;11.8;10.8;;;;;;;11.2;97.8;101200;;;;
2022/04/19 00:45:02;;;;;;;11.8;10.8;;;;;;;11.2;97.8;101200;;;;
2022/04/19 00:46:00;;;;;;;11.8;10.8;;;;;;;11.2;99.8;101200;;;;
2022/04/19 00:47:00;;;;;;;11.8;10.8;;;;;;;11.2;99.8;101200;;;;
2022/04/19 00:48:00;;;;;;;12.6;11.5;;;;;;;11.1;100.0;101200;;;;
2022/04/19 00:49:00;;;;;;;12.6;11.5;;;;;;;11.1;100.0;101200;;;;
2022/04/19 00:50:01;;;;;;;12.6;11.5;;;;;;;11.2;99.1;101200;;;;
2022/04/19 00:51:01;;;;;;;12.6;11.5;;;;;;;11.2;99.1;101200;;;;
2022/04/19 00:52:00;;;;;;;12.6;11.5;;;;;;;11.1;100.0;101200;;;;
2022/04/19 00:53:01;;;;;;;12.6;11.5;;;;;;;11.1;100.0;101200;;;;
2022/04/19 00:54:00;;;;;;;12.6;11.5;;;;;;;11.1;100.0;101200;;;;
2022/04/19 00:55:01;;;;;;;12.6;11.5;;;;;;;11.1;100.0;101200;;;;
2022/04/19 00:56:00;;;;;;;12.6;11.5;;;;;;;11.0;100.0;101200;;;;
2022/04/19 00:57:00;;;;;;;12.6;11.5;;;;;;;11.0;100.0;101200;;;;
2022/04/19 00:58:00;;;;;;;12.6;11.5;;;;;;;10.8;100.0;101200;;;;
2022/04/19 00:59:00;;;;;;;12.6;11.5;;;;;;;10.8;100.0;101200;;;;
2022/04/19 01:00:00;;;;;;;12.6;11.5;;;;;;;10.9;100.0;101200;;;;
2022/04/19 01:01:01;;;;;;;12.6;11.5;;;;;;;10.9;100.0;101200;;;;
2022/04/19 01:02:00;;;;;;;12.6;11.5;;;;;;;10.9;100.0;101200;;;;
2022/04/19 01:03:06;;;;;;;12.6;11.5;;;;;;;10.9;100.0;101200;;;;
2022/04/19 01:04:00;;;;;;;12.6;11.5;;;;;;;10.9;100.0;101200;;;;
2022/04/19 01:05:00;;;;;;;12.6;11.5;;;;;;;10.9;100.0;101200;;;;
2022/04/19 01:06:00;;;;;;;12.6;11.5;;;;;;;10.8;99.4;101200;;;;
2022/04/19 01:07:00;;;;;;;12.6;11.5;;;;;;;10.8;99.4;101200;;;;
2022/04/19 01:08:00;;;;;;;13.0;11.8;;;;;;;10.8;99.7;101200;;;;
2022/04/19 01:09:00;;;;;;;13.0;11.8;;;;;;;10.8;99.7;101200;;;;
2022/04/19 01:10:01;;;;;;;13.0;11.8;;;;;;;10.8;99.7;101200;;;;
2022/04/19 01:14:02;;;;;;;13.0;11.8;;;;;;;10.8;100.0;101200;;;;
2022/04/19 01:15:05;;;;;;;13.0;11.8;;;;;;;10.8;100.0;101200;;;;
2022/04/19 01:16:00;;;;;;;13.0;11.8;;;;;;;10.7;100.0;101200;;;;
2022/04/19 01:17:00;;;;;;;13.0;11.8;;;;;;;10.7;100.0;101200;;;;
2022/04/19 01:18:02;;;;;;;13.0;11.8;;;;;;;10.6;100.0;101200;;;;
2022/04/19 01:19:01;;;;;;;13.0;11.8;;;;;;;10.6;100.0;101200;;;;
2022/04/19 01:20:01;;;;;;;13.0;11.8;;;;;;;10.6;100.0;101200;;;;
2022/04/19 01:21:00;;;;;;;13.0;11.8;;;;;;;10.6;100.0;101200;;;;
2022/04/19 01:22:00;;;;;;;13.0;11.8;;;;;;;10.6;100.0;101200;;;;
2022/04/19 01:23:00;;;;;;;13.0;11.8;;;;;;;10.6;100.0;101200;;;;
2022/04/19 01:24:00;;;;;;;13.0;11.8;;;;;;;10.6;100.0;101200;;;;
2022/04/19 01:25:00;;;;;;;13.0;11.8;;;;;;;10.6;100.0;101200;;;;
2022/04/19 01:26:00;;;;;;;13.0;11.8;;;;;;;10.6;100.0;101200;;;;
2022/04/19 01:27:00;;;;;;;13.0;11.8;;;;;;;10.6;100.0;101200;;;;
2022/04/19 01:28:00;;;;;;;12.5;11.2;;;;;;;10.5;100.0;101190;;;;
2022/04/19 01:29:00;;;;;;;12.5;11.2;;;;;;;10.5;100.0;101190;;;;
2022/04/19 01:30:03;;;;;;;12.5;11.2;;;;;;;10.4;100.0;101200;;;;
2022/04/19 01:31:00;;;;;;;12.5;11.2;;;;;;;10.4;100.0;101200;;;;
2022/04/19 01:32:01;;;;;;;12.5;11.2;;;;;;;10.5;100.0;101190;;;;
2022/04/19 01:33:00;;;;;;;12.5;11.2;;;;;;;10.5;100.0;101190;;;;
2022/04/19 01:34:01;;;;;;;12.5;11.2;;;;;;;10.5;100.0;101190;;;;
2022/04/19 01:35:10;;;;;;;12.5;11.2;;;;;;;10.5;100.0;101190;;;;
2022/04/19 01:36:00;;;;;;;12.5;11.2;;;;;;;10.5;100.0;101190;;;;
2022/04/19 01:37:00;;;;;;;12.5;11.2;;;;;;;10.5;100.0;101190;;;;
2022/04/19 01:38:00;;;;;;;12.5;11.2;;;;;;;10.5;100.0;101190;;;;
2022/04/19 01:39:00;;;;;;;12.5;11.2;;;;;;;10.5;100.0;101190;;;;
2022/04/19 01:41:00;;;;;;;12.5;11.2;;;;;;;10.4;100.0;101190;;;;
2022/04/19 01:42:00;;;;;;;12.5;11.2;;;;;;;10.4;100.0;101190;;;;
2022/04/19 01:43:02;;;;;;;12.5;11.2;;;;;;;10.4;100.0;101190;;;;
2022/04/19 01:44:00;;;;;;;12.5;11.2;;;;;;;10.4;100.0;101190;;;;
2022/04/19 01:45:03;;;;;;;12.5;11.2;;;;;;;10.4;100.0;101190;;;;
2022/04/19 01:46:00;;;;;;;12.5;11.2;;;;;;;10.2;100.0;101180;;;;
2022/04/19 01:47:01;;;;;;;12.5;11.2;;;;;;;10.2;100.0;101180;;;;
2022/04/19 01:48:00;;;;;;;12.3;11.2;;;;;;;10.2;100.0;101190;;;;
2022/04/19 01:49:01;;;;;;;12.3;11.2;;;;;;;10.2;100.0;101190;;;;
2022/04/19 01:50:00;;;;;;;12.3;11.2;;;;;;;10.3;100.0;101180;;;;
2022/04/19 01:51:00;;;;;;;12.3;11.2;;;;;;;10.3;100.0;101180;;;;
2022/04/19 01:52:00;;;;;;;12.3;11.2;;;;;;;10.3;100.0;101180;;;;
2022/04/19 01:53:00;;;;;;;12.3;11.2;;;;;;;10.3;100.0;101180;;;;
2022/04/19 01:54:00;;;;;;;12.3;11.2;;;;;;;10.2;100.0;101180;;;;
2022/04/19 01:55:00;;;;;;;12.3;11.2;;;;;;;10.2;100.0;101180;;;;
2022/04/19 01:56:00;;;;;;;12.3;11.2;;;;;;;10.2;100.0;101180;;;;
2022/04/19 01:57:00;;;;;;;12.3;11.2;;;;;;;10.2;100.0;101180;;;;
2022/04/19 01:58:00;;;;;;;12.3;11.2;;;;;;;10.2;100.0;101180;;;;
2022/04/19 01:59:00;;;;;;;12.3;11.2;;;;;;;10.2;100.0;101180;;;;
2022/04/19 02:00:00;;;;;;;12.3;11.2;;;;;;;10.2;100.0;101180;;;;
2022/04/19 02:01:00;;;;;;;12.3;11.2;;;;;;;10.2;100.0;101180;;;;
2022/04/19 02:02:00;;;;;;;12.3;11.2;;;;;;;10.1;100.0;101170;;;;
2022/04/19 02:03:01;;;;;;;12.3;11.2;;;;;;;10.1;100.0;101170;;;;
2022/04/19 02:04:00;;;;;;;12.3;11.2;;;;;;;10.1;100.0;101170;;;;
2022/04/19 02:05:00;;;;;;;12.3;11.2;;;;;;;10.1;100.0;101170;;;;
2022/04/19 02:06:00;;;;;;;12.3;11.2;;;;;;;10.1;100.0;101170;;;;
2022/04/19 02:07:00;;;;;;;12.3;11.2;;;;;;;10.1;100.0;101170;;;;
2022/04/19 02:08:00;;;;;;;12.7;11.4;;;;;;;10.1;100.0;101170;;;;
2022/04/19 02:09:03;;;;;;;12.7;11.4;;;;;;;10.1;100.0;101170;;;;
2022/04/19 02:10:00;;;;;;;12.7;11.4;;;;;;;10.1;100.0;101170;;;;
2022/04/19 02:11:00;;;;;;;12.7;11.4;;;;;;;10.1;100.0;101170;;;;
2022/04/19 02:12:00;;;;;;;12.7;11.4;;;;;;;10.0;100.0;101170;;;;
2022/04/19 02:13:00;;;;;;;12.7;11.4;;;;;;;10.0;100.0;101170;;;;
2022/04/19 02:14:00;;;;;;;12.7;11.4;;;;;;;10.0;100.0;101170;;;;
2022/04/19 02:15:00;;;;;;;12.7;11.4;;;;;;;10.0;100.0;101170;;;;
2022/04/19 02:16:00;;;;;;;12.7;11.4;;;;;;;10.0;100.0;101170;;;;
2022/04/19 02:17:00;;;;;;;12.7;11.4;;;;;;;10.0;100.0;101170;;;;
2022/04/19 02:18:01;;;;;;;12.7;11.4;;;;;;;10.0;100.0;101160;;;;
2022/04/19 02:19:00;;;;;;;12.7;11.4;;;;;;;10.0;100.0;101160;;;;
2022/04/19 02:20:01;;;;;;;12.7;11.4;;;;;;;9.9;100.0;101160;;;;
2022/04/19 02:21:00;;;;;;;12.7;11.4;;;;;;;9.9;100.0;101160;;;;
2022/04/19 02:22:00;;;;;;;12.7;11.4;;;;;;;9.9;100.0;101160;;;;
2022/04/19 02:23:01;;;;;;;12.7;11.4;;;;;;;9.9;100.0;101160;;;;
2022/04/19 02:24:00;;;;;;;12.7;11.4;;;;;;;9.9;100.0;101160;;;;
2022/04/19 02:25:00;;;;;;;12.7;11.4;;;;;;;9.9;100.0;101160;;;;
2022/04/19 02:26:00;;;;;;;12.7;11.4;;;;;;;9.9;100.0;101160;;;;
2022/04/19 02:27:00;;;;;;;12.7;11.4;;;;;;;9.9;100.0;101160;;;;
2022/04/19 02:28:00;;;;;;;12.0;10.9;;;;;;;9.9;100.0;101160;;;;
2022/04/19 02:29:00;;;;;;;12.0;10.9;;;;;;;9.9;100.0;101160;;;;
2022/04/19 02:30:04;;;;;;;12.0;10.9;;;;;;;9.9;100.0;101160;;;;
2022/04/19 02:31:00;;;;;;;12.0;10.9;;;;;;;9.9;100.0;101160;;;;
2022/04/19 02:32:00;;;;;;;12.0;10.9;;;;;;;9.8;100.0;101160;;;;
2022/04/19 02:33:02;;;;;;;12.0;10.9;;;;;;;9.8;100.0;101160;;;;
2022/04/19 02:34:00;;;;;;;12.0;10.9;;;;;;;9.8;100.0;101150;;;;
2022/04/19 02:35:00;;;;;;;12.0;10.9;;;;;;;9.8;100.0;101150;;;;
2022/04/19 02:36:00;;;;;;;12.0;10.9;;;;;;;9.8;100.0;101150;;;;
2022/04/19 02:37:00;;;;;;;12.0;10.9;;;;;;;9.8;100.0;101150;;;;
2022/04/19 02:38:00;;;;;;;12.0;10.9;;;;;;;9.7;100.0;101150;;;;
2022/04/19 02:39:01;;;;;;;12.0;10.9;;;;;;;9.7;100.0;101150;;;;
2022/04/19 02:40:01;;;;;;;12.0;10.9;;;;;;;9.7;100.0;101160;;;;
2022/04/19 02:41:00;;;;;;;12.0;10.9;;;;;;;9.7;100.0;101160;;;;
2022/04/19 02:42:00;;;;;;;12.0;10.9;;;;;;;9.7;100.0;101160;;;;
2022/04/19 02:43:00;;;;;;;12.0;10.9;;;;;;;9.7;100.0;101160;;;;
2022/04/19 02:44:00;;;;;;;12.0;10.9;;;;;;;9.7;100.0;101160;;;;
2022/04/19 02:45:03;;;;;;;12.0;10.9;;;;;;;9.7;100.0;101160;;;;
2022/04/19 02:46:00;;;;;;;12.0;10.9;;;;;;;9.7;100.0;101160;;;;
2022/04/19 02:47:02;;;;;;;12.0;10.9;;;;;;;9.7;100.0;101160;;;;
2022/04/19 02:48:04;;;;;;;12.1;11.0;;;;;;;9.7;100.0;101160;;;;
2022/04/19 02:49:04;;;;;;;12.1;11.0;;;;;;;9.7;100.0;101160;;;;
2022/04/19 02:50:01;;;;;;;12.1;11.0;;;;;;;9.6;100.0;101160;;;;
2022/04/19 02:51:00;;;;;;;12.1;11.0;;;;;;;9.6;100.0;101160;;;;
2022/04/19 02:52:00;;;;;;;12.1;11.0;;;;;;;9.6;100.0;101160;;;;
2022/04/19 02:53:00;;;;;;;12.1;11.0;;;;;;;9.6;100.0;101160;;;;
2022/04/19 02:54:00;;;;;;;12.1;11.0;;;;;;;9.5;100.0;101160;;;;
2022/04/19 02:55:00;;;;;;;12.1;11.0;;;;;;;9.5;100.0;101160;;;;
2022/04/19 02:56:00;;;;;;;12.1;11.0;;;;;;;9.5;100.0;101160;;;;
2022/04/19 02:57:00;;;;;;;12.1;11.0;;;;;;;9.5;100.0;101160;;;;
2022/04/19 02:58:00;;;;;;;12.1;11.0;;;;;;;9.5;100.0;101160;;;;
2022/04/19 02:59:00;;;;;;;12.1;11.0;;;;;;;9.5;100.0;101160;;;;
2022/04/19 03:00:00;;;;;;;12.1;11.0;;;;;;;9.4;100.0;101160;;;;
2022/04/19 03:01:01;;;;;;;12.1;11.0;;;;;;;9.4;100.0;101160;;;;
2022/04/19 03:02:00;;;;;;;12.1;11.0;;;;;;;9.4;100.0;101160;;;;
2022/04/19 03:03:00;;;;;;;12.1;11.0;;;;;;;9.4;100.0;101160;;;;
2022/04/19 03:04:00;;;;;;;12.1;11.0;;;;;;;9.4;100.0;101160;;;;
2022/04/19 03:05:00;;;;;;;12.1;11.0;;;;;;;9.4;100.0;101160;;;;
2022/04/19 03:06:00;;;;;;;12.1;11.0;;;;;;;9.4;100.0;101160;;;;
2022/04/19 03:07:01;;;;;;;12.1;11.0;;;;;;;9.4;100.0;101160;;;;
2022/04/19 03:08:00;;;;;;;12.6;11.1;;;;;;;9.4;100.0;101160;;;;
2022/04/19 03:09:00;;;;;;;12.6;11.1;;;;;;;9.4;100.0;101160;;;;
2022/04/19 03:10:00;;;;;;;12.6;11.1;;;;;;;9.4;100.0;101150;;;;
2022/04/19 03:11:00;;;;;;;12.6;11.1;;;;;;;9.4;100.0;101150;;;;
2022/04/19 03:12:00;;;;;;;12.6;11.1;;;;;;;9.4;100.0;101160;;;;
2022/04/19 03:13:01;;;;;;;12.6;11.1;;;;;;;9.4;100.0;101160;;;;
2022/04/19 03:14:00;;;;;;;12.6;11.1;;;;;;;9.3;100.0;101150;;;;
2022/04/19 03:15:00;;;;;;;12.6;11.1;;;;;;;9.3;100.0;101150;;;;
2022/04/19 03:16:00;;;;;;;12.6;11.1;;;;;;;9.3;100.0;101150;;;;
2022/04/19 03:17:00;;;;;;;12.6;11.1;;;;;;;9.3;100.0;101150;;;;
2022/04/19 03:18:00;;;;;;;12.6;11.1;;;;;;;9.2;100.0;101150;;;;
2022/04/19 03:19:00;;;;;;;12.6;11.1;;;;;;;9.2;100.0;101150;;;;
2022/04/19 03:20:00;;;;;;;12.6;11.1;;;;;;;9.2;100.0;101160;;;;
2022/04/19 03:21:01;;;;;;;12.6;11.1;;;;;;;9.2;100.0;101160;;;;
2022/04/19 03:22:00;;;;;;;12.6;11.1;;;;;;;9.2;100.0;101150;;;;
2022/04/19 03:28:00;;;;;;;11.6;10.6;;;;;;;9.2;100.0;101150;;;;
2022/04/19 03:29:00;;;;;;;11.6;10.6;;;;;;;9.2;100.0;101150;;;;
2022/04/19 03:30:00;;;;;;;11.6;10.6;;;;;;;9.1;100.0;101160;;;;
2022/04/19 03:31:01;;;;;;;11.6;10.6;;;;;;;9.1;100.0;101160;;;;
2022/04/19 03:32:00;;;;;;;11.6;10.6;;;;;;;9.1;100.0;101160;;;;
2022/04/19 03:33:00;;;;;;;11.6;10.6;;;;;;;9.1;100.0;101160;;;;
2022/04/19 03:34:00;;;;;;;11.6;10.6;;;;;;;9.1;100.0;101150;;;;
2022/04/19 03:35:00;;;;;;;11.6;10.6;;;;;;;9.1;100.0;101150;;;;
2022/04/19 03:36:00;;;;;;;11.6;10.6;;;;;;;9.1;100.0;101150;;;;
2022/04/19 03:37:00;;;;;;;11.6;10.6;;;;;;;9.1;100.0;101150;;;;
2022/04/19 03:38:00;;;;;;;11.6;10.6;;;;;;;9.0;100.0;101150;;;;
2022/04/19 03:39:00;;;;;;;11.6;10.6;;;;;;;9.0;100.0;101150;;;;
2022/04/19 03:40:00;;;;;;;11.6;10.6;;;;;;;9.0;100.0;101150;;;;
2022/04/19 03:41:00;;;;;;;11.6;10.6;;;;;;;9.0;100.0;101150;;;;
2022/04/19 03:42:00;;;;;;;11.6;10.6;;;;;;;9.0;100.0;101150;;;;
2022/04/19 03:43:00;;;;;;;11.6;10.6;;;;;;;9.0;100.0;101150;;;;
2022/04/19 03:44:00;;;;;;;11.6;10.6;;;;;;;8.9;100.0;101150;;;;
2022/04/19 03:45:00;;;;;;;11.6;10.6;;;;;;;8.9;100.0;101150;;;;
2022/04/19 03:46:00;;;;;;;11.6;10.6;;;;;;;8.9;100.0;101150;;;;
2022/04/19 03:47:07;;;;;;;11.6;10.6;;;;;;;8.9;100.0;101150;;;;
2022/04/19 03:48:00;;;;;;;12.6;11.5;;;;;;;9.0;100.0;101150;;;;
2022/04/19 03:49:00;;;;;;;12.6;11.5;;;;;;;9.0;100.0;101150;;;;
2022/04/19 03:50:00;;;;;;;12.6;11.5;;;;;;;8.8;100.0;101150;;;;
2022/04/19 03:51:00;;;;;;;12.6;11.5;;;;;;;8.8;100.0;101150;;;;
2022/04/19 03:52:00;;;;;;;12.6;11.5;;;;;;;8.8;100.0;101150;;;;
2022/04/19 03:53:00;;;;;;;12.6;11.5;;;;;;;8.8;100.0;101150;;;;
2022/04/19 03:54:00;;;;;;;12.6;11.5;;;;;;;8.6;100.0;101150;;;;
2022/04/19 03:55:00;;;;;;;12.6;11.5;;;;;;;8.6;100.0;101150;;;;
2022/04/19 03:56:00;;;;;;;12.6;11.5;;;;;;;8.6;100.0;101150;;;;
2022/04/19 03:57:03;;;;;;;12.6;11.5;;;;;;;8.6;100.0;101150;;;;
2022/04/19 03:58:02;;;;;;;12.6;11.5;;;;;;;8.6;100.0;101150;;;;
2022/04/19 03:59:00;;;;;;;12.6;11.5;;;;;;;8.6;100.0;101150;;;;
2022/04/19 04:00:00;;;;;;;12.6;11.5;;;;;;;8.6;100.0;101150;;;;
2022/04/19 04:01:00;;;;;;;12.6;11.5;;;;;;;8.6;100.0;101150;;;;
2022/04/19 04:02:00;;;;;;;12.6;11.5;;;;;;;8.6;100.0;101150;;;;
2022/04/19 04:03:01;;;;;;;12.6;11.5;;;;;;;8.6;100.0;101150;;;;
2022/04/19 04:04:00;;;;;;;12.6;11.5;;;;;;;8.7;100.0;101160;;;;
2022/04/19 04:05:00;;;;;;;12.6;11.5;;;;;;;8.7;100.0;101160;;;;
2022/04/19 04:06:00;;;;;;;12.6;11.5;;;;;;;8.7;100.0;101160;;;;
2022/04/19 04:07:00;;;;;;;12.6;11.5;;;;;;;8.7;100.0;101160;;;;
2022/04/19 04:08:00;;;;;;;13.6;12.2;;;;;;;8.8;100.0;101160;;;;
2022/04/19 04:09:00;;;;;;;13.6;12.2;;;;;;;8.8;100.0;101160;;;;
2022/04/19 04:10:00;;;;;;;13.6;12.2;;;;;;;8.7;100.0;101160;;;;
2022/04/19 04:11:00;;;;;;;13.6;12.2;;;;;;;8.7;100.0;101160;;;;
2022/04/19 04:12:01;;;;;;;13.6;12.2;;;;;;;8.6;100.0;101160;;;;
2022/04/19 04:13:00;;;;;;;13.6;12.2;;;;;;;8.6;100.0;101160;;;;
2022/04/19 04:14:00;;;;;;;13.6;12.2;;;;;;;8.6;100.0;101160;;;;
2022/04/19 04:15:01;;;;;;;13.6;12.2;;;;;;;8.6;100.0;101160;;;;
2022/04/19 04:16:00;;;;;;;13.6;12.2;;;;;;;8.6;100.0;101160;;;;
2022/04/19 04:17:00;;;;;;;13.6;12.2;;;;;;;8.6;100.0;101160;;;;
2022/04/19 04:18:00;;;;;;;13.6;12.2;;;;;;;8.6;100.0;101160;;;;
2022/04/19 04:19:00;;;;;;;13.6;12.2;;;;;;;8.6;100.0;101160;;;;
2022/04/19 04:20:00;;;;;;;13.6;12.2;;;;;;;8.5;100.0;101160;;;;
2022/04/19 04:21:00;;;;;;;13.6;12.2;;;;;;;8.5;100.0;101160;;;;
2022/04/19 04:22:00;;;;;;;13.6;12.2;;;;;;;8.5;100.0;101160;;;;
2022/04/19 04:23:00;;;;;;;13.6;12.2;;;;;;;8.5;100.0;101160;;;;
2022/04/19 04:24:00;;;;;;;13.6;12.2;;;;;;;8.5;100.0;101160;;;;
2022/04/19 04:25:00;;;;;;;13.6;12.2;;;;;;;8.5;100.0;101160;;;;
2022/04/19 04:26:00;;;;;;;13.6;12.2;;;;;;;8.4;100.0;101160;;;;
2022/04/19 04:27:00;;;;;;;13.6;12.2;;;;;;;8.4;100.0;101160;;;;
2022/04/19 04:28:00;;;;;;;13.3;12.0;;;;;;;8.5;100.0;101160;;;;
2022/04/19 04:29:00;;;;;;;13.3;12.0;;;;;;;8.5;100.0;101160;;;;
2022/04/19 04:30:00;;;;;;;13.3;12.0;;;;;;;8.4;100.0;101160;;;;
2022/04/19 04:31:00;;;;;;;13.3;12.0;;;;;;;8.4;100.0;101160;;;;
2022/04/19 04:32:00;;;;;;;13.3;12.0;;;;;;;8.4;100.0;101160;;;;
2022/04/19 04:33:00;;;;;;;13.3;12.0;;;;;;;8.4;100.0;101160;;;;
2022/04/19 04:34:00;;;;;;;13.3;12.0;;;;;;;8.2;100.0;101170;;;;
2022/04/19 04:35:00;;;;;;;13.3;12.0;;;;;;;8.2;100.0;101170;;;;
2022/04/19 04:36:00;;;;;;;13.3;12.0;;;;;;;8.3;100.0;101170;;;;
2022/04/19 04:37:00;;;;;;;13.3;12.0;;;;;;;8.3;100.0;101170;;;;
2022/04/19 04:38:00;;;;;;;13.3;12.0;;;;;;;8.1;100.0;101170;;;;
2022/04/19 04:39:00;;;;;;;13.3;12.0;;;;;;;8.1;100.0;101170;;;;
2022/04/19 04:40:00;;;;;;;13.3;12.0;;;;;;;8.1;100.0;101170;;;;
2022/04/19 04:41:00;;;;;;;13.3;12.0;;;;;;;8.1;100.0;101170;;;;
2022/04/19 04:42:00;;;;;;;13.3;12.0;;;;;;;8.1;100.0;101170;;;;
2022/04/19 04:43:00;;;;;;;13.3;12.0;;;;;;;8.1;100.0;101170;;;;
2022/04/19 04:44:00;;;;;;;13.3;12.0;;;;;;;8.1;100.0;101170;;;;
2022/04/19 04:45:00;;;;;;;13.3;12.0;;;;;;;8.1;100.0;101170;;;;
2022/04/19 04:50:00;;;;;;;14.0;12.6;;;;;;;8.2;100.0;101170;;;;
2022/04/19 04:51:00;;;;;;;14.0;12.6;;;;;;;8.2;100.0;101170;;;;
2022/04/19 04:52:00;;;;;;;14.0;12.6;;;;;;;8.2;100.0;101170;;;;
2022/04/19 04:53:00;;;;;;;14.0;12.6;;;;;;;8.2;100.0;101170;;;;
2022/04/19 04:54:00;;;;;;;14.0;12.6;;;;;;;8.2;100.0;101180;;;;
2022/04/19 04:55:00;;;;;;;14.0;12.6;;;;;;;8.2;100.0;101180;;;;
2022/04/19 04:56:00;;;;;;;14.0;12.6;;;;;;;8.2;100.0;101180;;;;
2022/04/19 04:57:00;;;;;;;14.0;12.6;;;;;;;8.2;100.0;101180;;;;
2022/04/19 04:58:01;;;;;;;14.0;12.6;;;;;;;8.2;100.0;101180;;;;
2022/04/19 04:59:00;;;;;;;14.0;12.6;;;;;;;8.2;100.0;101180;;;;
2022/04/19 05:00:00;;;;;;;14.0;12.6;;;;;;;8.2;100.0;101180;;;;
2022/04/19 05:01:00;;;;;;;14.0;12.6;;;;;;;8.2;100.0;101180;;;;
2022/04/19 05:02:00;;;;;;;14.0;12.6;;;;;;;8.2;100.0;101190;;;;
2022/04/19 05:03:00;;;;;;;14.0;12.6;;;;;;;8.2;100.0;101190;;;;
2022/04/19 05:04:00;;;;;;;14.0;12.6;;;;;;;8.2;100.0;101190;;;;
2022/04/19 05:05:00;;;;;;;14.0;12.6;;;;;;;8.2;100.0;101190;;;;
2022/04/19 05:06:00;;;;;;;14.0;12.6;;;;;;;8.2;100.0;101190;;;;
2022/04/19 05:07:00;;;;;;;13.6;12.1;;;;;;;8.2;100.0;101190;;;;
2022/04/19 05:08:02;;;;;;;13.6;12.1;;;;;;;8.3;100.0;101190;;;;
2022/04/19 05:09:00;;;;;;;13.6;12.1;;;;;;;8.3;100.0;101190;;;;
2022/04/19 05:10:00;;;;;;;13.6;12.1;;;;;;;8.1;100.0;101190;;;;
2022/04/19 05:11:00;;;;;;;13.6;12.1;;;;;;;8.1;100.0;101190;;;;
2022/04/19 05:12:00;;;;;;;13.6;12.1;;;;;;;8.1;100.0;101190;;;;
2022/04/19 05:13:00;;;;;;;13.6;12.1;;;;;;;8.1;100.0;101190;;;;
2022/04/19 05:14:03;;;;;;;13.6;12.1;;;;;;;8.2;100.0;101190;;;;
2022/04/19 05:15:00;;;;;;;13.6;12.1;;;;;;;8.2;100.0;101190;;;;
2022/04/19 05:16:01;;;;;;;13.6;12.1;;;;;;;8.2;100.0;101190;;;;
2022/04/19 05:17:00;;;;;;;13.6;12.1;;;;;;;8.2;100.0;101190;;;;
2022/04/19 05:18:00;;;;;;;13.6;12.1;;;;;;;8.1;100.0;101190;;;;
2022/04/19 05:19:00;;;;;;;13.6;12.1;;;;;;;8.1;100.0;101190;;;;
2022/04/19 05:20:00;;;;;;;13.6;12.1;;;;;;;8.2;100.0;101190;;;;
2022/04/19 05:21:00;;;;;;;13.6;12.1;;;;;;;8.2;100.0;101190;;;;
2022/04/19 05:22:00;;;;;;;13.6;12.1;;;;;;;8.2;100.0;101190;;;;
2022/04/19 05:23:00;;;;;;;13.6;12.1;;;;;;;8.2;100.0;101190;;;;
2022/04/19 05:24:00;;;;;;;13.6;12.1;;;;;;;8.3;100.0;101190;;;;
2022/04/19 05:25:00;;;;;;;13.6;12.1;;;;;;;8.3;100.0;101190;;;;
2022/04/19 05:26:00;;;;;;;13.6;12.1;;;;;;;8.3;100.0;101190;;;;
2022/04/19 05:27:00;;;;;;;15.8;12.4;;;;;;;8.3;100.0;101190;;;;
2022/04/19 05:28:00;;;;;;;15.8;12.4;;;;;;;8.4;100.0;101180;;;;
2022/04/19 05:29:00;;;;;;;15.8;12.4;;;;;;;8.4;100.0;101180;;;;
2022/04/19 05:30:00;;;;;;;15.8;12.4;;;;;;;8.4;100.0;101180;;;;
2022/04/19 05:31:00;;;;;;;15.8;12.4;;;;;;;8.4;100.0;101180;;;;
2022/04/19 05:32:00;;;;;;;15.8;12.4;;;;;;;8.4;100.0;101190;;;;
2022/04/19 05:33:00;;;;;;;15.8;12.4;;;;;;;8.4;100.0;101190;;;;
2022/04/19 05:34:00;;;;;;;15.8;12.4;;;;;;;8.5;100.0;101180;;;;
2022/04/19 05:35:00;;;;;;;15.8;12.4;;;;;;;8.5;100.0;101180;;;;
2022/04/19 05:36:00;;;;;;;15.8;12.4;;;;;;;8.5;100.0;101190;;;;
2022/04/19 05:37:00;;;;;;;15.8;12.4;;;;;;;8.5;100.0;101190;;;;
2022/04/19 05:38:00;;;;;;;15.8;12.4;;;;;;;8.5;100.0;101180;;;;
2022/04/19 05:39:00;;;;;;;15.8;12.4;;;;;;;8.5;100.0;101180;;;;
2022/04/19 05:40:00;;;;;;;15.8;12.4;;;;;;;8.6;100.0;101180;;;;
2022/04/19 05:41:00;;;;;;;15.8;12.4;;;;;;;8.6;100.0;101180;;;;
2022/04/19 05:42:00;;;;;;;15.8;12.4;;;;;;;8.6;100.0;101180;;;;
2022/04/19 05:43:01;;;;;;;15.8;12.4;;;;;;;8.6;100.0;101180;;;;
2022/04/19 05:44:00;;;;;;;15.8;12.4;;;;;;;8.5;100.0;101180;;;;
2022/04/19 05:45:00;;;;;;;15.8;12.4;;;;;;;8.5;100.0;101180;;;;
2022/04/19 05:46:00;;;;;;;15.8;12.4;;;;;;;8.6;100.0;101190;;;;
2022/04/19 05:47:00;;;;;;;22.5;15.6;;;;;;;8.6;100.0;101190;;;;
2022/04/19 05:48:00;;;;;;;22.5;15.6;;;;;;;8.8;100.0;101180;;;;
2022/04/19 05:49:00;;;;;;;22.5;15.6;;;;;;;8.8;100.0;101180;;;;
2022/04/19 05:50:00;;;;;;;22.5;15.6;;;;;;;8.7;100.0;101180;;;;
2022/04/19 05:51:00;;;;;;;22.5;15.6;;;;;;;8.7;100.0;101180;;;;
2022/04/19 05:52:01;;;;;;;22.5;15.6;;;;;;;8.9;100.0;101190;;;;
2022/04/19 05:53:00;;;;;;;22.5;15.6;;;;;;;8.9;100.0;101190;;;;
2022/04/19 05:54:00;;;;;;;22.5;15.6;;;;;;;8.9;100.0;101190;;;;
2022/04/19 05:55:00;;;;;;;22.5;15.6;;;;;;;8.9;100.0;101190;;;;
2022/04/19 05:56:00;;;;;;;22.5;15.6;;;;;;;9.0;100.0;101190;;;;
2022/04/19 05:57:00;;;;;;;22.5;15.6;;;;;;;9.0;100.0;101190;;;;
2022/04/19 05:58:00;;;;;;;22.5;15.6;;;;;;;9.0;100.0;101190;;;;
2022/04/19 05:59:00;;;;;;;22.5;15.6;;;;;;;9.0;100.0;101190;;;;
2022/04/19 06:00:00;;;;;;;22.5;15.6;;;;;;;9.2;100.0;101190;;;;
2022/04/19 06:01:01;;;;;;;22.5;15.6;;;;;;;9.2;100.0;101190;;;;
2022/04/19 06:05:00;;;;;;;22.5;15.6;;;;;;;9.3;100.0;101190;;;;
2022/04/19 06:06:00;;;;;;;22.5;15.6;;;;;;;9.3;100.0;101190;;;;
2022/04/19 06:07:00;;;;;;;14.6;13.1;;;;;;;9.3;100.0;101190;;;;
2022/04/19 06:08:00;;;;;;;14.6;13.1;;;;;;;9.3;100.0;101190;;;;
2022/04/19 06:09:00;;;;;;;14.6;13.1;;;;;;;9.3;100.0;101190;;;;
2022/04/19 06:10:00;;;;;;;14.6;13.1;;;;;;;9.5;100.0;101190;;;;
2022/04/19 06:11:00;;;;;;;14.6;13.1;;;;;;;9.5;100.0;101190;;;;
2022/04/19 06:12:00;;;;;;;14.6;13.1;;;;;;;9.6;100.0;101190;;;;
2022/04/19 06:13:00;;;;;;;14.6;13.1;;;;;;;9.6;100.0;101190;;;;
2022/04/19 06:14:00;;;;;;;14.6;13.1;;;;;;;9.6;100.0;101190;;;;
2022/04/19 06:15:00;;;;;;;14.6;13.1;;;;;;;9.6;100.0;101190;;;;
2022/04/19 06:16:06;;;;;;;14.6;13.1;;;;;;;9.8;100.0;101190;;;;
2022/04/19 06:17:00;;;;;;;14.6;13.1;;;;;;;9.8;100.0;101190;;;;
2022/04/19 06:18:00;;;;;;;14.6;13.1;;;;;;;9.8;100.0;101190;;;;
2022/04/19 06:19:00;;;;;;;14.6;13.1;;;;;;;9.8;100.0;101190;;;;
2022/04/19 06:20:00;;;;;;;14.6;13.1;;;;;;;9.9;100.0;101190;;;;
2022/04/19 06:21:00;;;;;;;14.6;13.1;;;;;;;9.9;100.0;101190;;;;
2022/04/19 06:22:00;;;;;;;14.6;13.1;;;;;;;9.9;100.0;101190;;;;
2022/04/19 06:23:00;;;;;;;14.6;13.1;;;;;;;9.9;100.0;101190;;;;
2022/04/19 06:24:03;;;;;;;14.6;13.1;;;;;;;10.0;100.0;101190;;;;
2022/04/19 06:25:01;;;;;;;14.6;13.1;;;;;;;10.0;100.0;101190;;;;
2022/04/19 06:26:00;;;;;;;14.6;13.1;;;;;;;10.0;100.0;101190;;;;
2022/04/19 06:27:00;;;;;;;19.5;13.9;;;;;;;10.0;100.0;101190;;;;
2022/04/19 06:28:00;;;;;;;19.5;13.9;;;;;;;10.4;100.0;101200;;;;
2022/04/19 06:29:00;;;;;;;19.5;13.9;;;;;;;10.4;100.0;101200;;;;
2022/04/19 06:30:00;;;;;;;19.5;13.9;;;;;;;10.3;100.0;101200;;;;
2022/04/19 06:31:00;;;;;;;19.5;13.9;;;;;;;10.3;100.0;101200;;;;
2022/04/19 06:32:00;;;;;;;19.5;13.9;;;;;;;10.6;100.0;101200;;;;